sensor_id;sensor_type;location;lat;lon;timestamp;pressure;altitude;pressure_sealevel;temperature;humidity
28628;BME280;15815;46.760;19.604;2023-05-22T00:01:04;100142.03;;;16.86;79.77
28628;BME280;15815;46.760;19.604;2023-05-22T00:03:30;100164.53;;;16.93;80.46
28628;BME280;15815;46.760;19.604;2023-05-22T00:05:56;100153.84;;;16.72;80.65
28628;BME280;15815;46.760;19.604;2023-05-22T00:08:21;100143.34;;;16.69;81.32
28628;BME280;15815;46.760;19.604;2023-05-22T00:10:50;100161.00;;;16.77;80.42
28628;BME280;15815;46.760;19.604;2023-05-22T00:13:15;100167.91;;;16.76;80.17
28628;BME280;15815;46.760;19.604;2023-05-22T00:15:41;100149.19;;;16.49;81.61
28628;BME280;15815;46.760;19.604;2023-05-22T00:18:08;100159.75;;;16.49;82.28
28628;BME280;15815;46.760;19.604;2023-05-22T00:20:33;100165.00;;;16.63;80.87
28628;BME280;15815;46.760;19.604;2023-05-22T00:23:00;100169.34;;;16.67;80.73
28628;BME280;15815;46.760;19.604;2023-05-22T00:25:25;100162.81;;;16.54;81.32
28628;BME280;15815;46.760;19.604;2023-05-22T00:27:51;100176.56;;;16.56;80.99
28628;BME280;15815;46.760;19.604;2023-05-22T00:30:16;100173.38;;;16.54;80.97
28628;BME280;15815;46.760;19.604;2023-05-22T00:32:42;100161.34;;;16.50;80.66
28628;BME280;15815;46.760;19.604;2023-05-22T00:35:08;100169.19;;;16.58;81.13
28628;BME280;15815;46.760;19.604;2023-05-22T00:37:34;100166.31;;;16.46;80.92
28628;BME280;15815;46.760;19.604;2023-05-22T00:39:59;100172.06;;;16.42;81.55
28628;BME280;15815;46.760;19.604;2023-05-22T00:42:25;100173.81;;;16.23;83.23
28628;BME280;15815;46.760;19.604;2023-05-22T00:44:50;100173.88;;;16.36;82.24
28628;BME280;15815;46.760;19.604;2023-05-22T00:47:16;100173.97;;;16.32;82.31
28628;BME280;15815;46.760;19.604;2023-05-22T00:49:42;100170.00;;;16.30;82.42
28628;BME280;15815;46.760;19.604;2023-05-22T00:52:09;100166.13;;;16.24;82.14
28628;BME280;15815;46.760;19.604;2023-05-22T00:54:35;100160.81;;;16.10;82.54
28628;BME280;15815;46.760;19.604;2023-05-22T00:57:00;100171.44;;;16.22;82.26
28628;BME280;15815;46.760;19.604;2023-05-22T00:59:28;100177.56;;;16.20;81.98
28628;BME280;15815;46.760;19.604;2023-05-22T01:01:57;100162.50;;;16.07;82.10
28628;BME280;15815;46.760;19.604;2023-05-22T01:04:24;100159.31;;;16.05;82.26
28628;BME280;15815;46.760;19.604;2023-05-22T01:06:49;100174.44;;;16.15;82.77
28628;BME280;15815;46.760;19.604;2023-05-22T01:09:15;100177.47;;;16.07;82.45
28628;BME280;15815;46.760;19.604;2023-05-22T01:11:46;100182.34;;;16.07;82.57
28628;BME280;15815;46.760;19.604;2023-05-22T01:14:35;100181.31;;;16.01;84.05
28628;BME280;15815;46.760;19.604;2023-05-22T01:30:42;100232.34;;;15.68;90.39
28628;BME280;15815;46.760;19.604;2023-05-22T01:33:14;100227.47;;;15.69;90.03
28628;BME280;15815;46.760;19.604;2023-05-22T01:35:44;100233.94;;;15.69;89.87
28628;BME280;15815;46.760;19.604;2023-05-22T01:38:11;100196.53;;;15.58;88.99
28628;BME280;15815;46.760;19.604;2023-05-22T01:40:37;100198.63;;;15.54;90.30
28628;BME280;15815;46.760;19.604;2023-05-22T01:43:03;100206.88;;;15.49;90.52
28628;BME280;15815;46.760;19.604;2023-05-22T01:45:29;100191.03;;;15.35;91.23
28628;BME280;15815;46.760;19.604;2023-05-22T01:47:54;100182.72;;;15.44;89.97
28628;BME280;15815;46.760;19.604;2023-05-22T01:50:20;100213.09;;;15.60;89.71
28628;BME280;15815;46.760;19.604;2023-05-22T01:53:01;100210.41;;;15.53;90.67
28628;BME280;15815;46.760;19.604;2023-05-22T01:55:42;100202.00;;;15.49;90.85
28628;BME280;15815;46.760;19.604;2023-05-22T01:58:24;100211.47;;;15.42;91.61
28628;BME280;15815;46.760;19.604;2023-05-22T02:00:51;100199.94;;;15.33;92.05
28628;BME280;15815;46.760;19.604;2023-05-22T02:03:23;100190.75;;;15.45;90.36
28628;BME280;15815;46.760;19.604;2023-05-22T02:05:52;100205.38;;;15.44;90.97
28628;BME280;15815;46.760;19.604;2023-05-22T02:08:19;100207.75;;;15.45;89.46
28628;BME280;15815;46.760;19.604;2023-05-22T02:10:47;100189.25;;;15.41;88.87
28628;BME280;15815;46.760;19.604;2023-05-22T02:13:14;100188.03;;;15.42;88.64
28628;BME280;15815;46.760;19.604;2023-05-22T02:15:46;100205.72;;;15.46;89.23
28628;BME280;15815;46.760;19.604;2023-05-22T02:18:12;100185.38;;;15.35;88.78
28628;BME280;15815;46.760;19.604;2023-05-22T02:20:38;100186.22;;;15.32;88.63
28628;BME280;15815;46.760;19.604;2023-05-22T02:23:03;100201.63;;;15.31;88.46
28628;BME280;15815;46.760;19.604;2023-05-22T02:25:29;100170.63;;;15.07;89.58
28628;BME280;15815;46.760;19.604;2023-05-22T02:27:55;100179.56;;;15.22;88.93
28628;BME280;15815;46.760;19.604;2023-05-22T02:30:20;100168.06;;;15.13;89.15
28628;BME280;15815;46.760;19.604;2023-05-22T02:32:46;100193.03;;;15.18;88.82
28628;BME280;15815;46.760;19.604;2023-05-22T02:35:12;100181.69;;;15.18;89.80
28628;BME280;15815;46.760;19.604;2023-05-22T02:37:38;100179.38;;;15.13;89.63
28628;BME280;15815;46.760;19.604;2023-05-22T02:40:04;100191.50;;;15.13;89.24
28628;BME280;15815;46.760;19.604;2023-05-22T02:42:30;100175.53;;;15.03;90.26
28628;BME280;15815;46.760;19.604;2023-05-22T02:44:56;100157.22;;;14.92;90.19
28628;BME280;15815;46.760;19.604;2023-05-22T02:47:21;100154.38;;;14.92;90.07
28628;BME280;15815;46.760;19.604;2023-05-22T02:49:48;100167.56;;;14.98;90.05
28628;BME280;15815;46.760;19.604;2023-05-22T02:52:14;100174.03;;;14.99;90.52
28628;BME280;15815;46.760;19.604;2023-05-22T02:54:39;100167.31;;;14.93;90.85
28628;BME280;15815;46.760;19.604;2023-05-22T02:57:05;100168.03;;;14.77;90.44
28628;BME280;15815;46.760;19.604;2023-05-22T02:59:31;100197.78;;;14.85;91.13
28628;BME280;15815;46.760;19.604;2023-05-22T03:01:57;100188.19;;;14.79;91.62
28628;BME280;15815;46.760;19.604;2023-05-22T03:04:23;100184.16;;;14.80;92.22
28628;BME280;15815;46.760;19.604;2023-05-22T03:06:51;100200.19;;;14.87;91.80
28628;BME280;15815;46.760;19.604;2023-05-22T03:09:17;100191.03;;;14.79;91.24
28628;BME280;15815;46.760;19.604;2023-05-22T03:11:43;100195.84;;;14.62;93.37
28628;BME280;15815;46.760;19.604;2023-05-22T03:14:08;100189.03;;;14.60;92.35
28628;BME280;15815;46.760;19.604;2023-05-22T03:16:34;100197.06;;;14.61;91.78
28628;BME280;15815;46.760;19.604;2023-05-22T03:19:12;100206.56;;;14.71;92.48
28628;BME280;15815;46.760;19.604;2023-05-22T03:21:38;100205.19;;;14.59;92.22
28628;BME280;15815;46.760;19.604;2023-05-22T03:24:04;100215.56;;;14.66;92.64
28628;BME280;15815;46.760;19.604;2023-05-22T03:26:30;100203.09;;;14.63;92.14
28628;BME280;15815;46.760;19.604;2023-05-22T03:28:56;100232.03;;;14.71;92.20
28628;BME280;15815;46.760;19.604;2023-05-22T03:31:26;100228.84;;;14.69;92.93
28628;BME280;15815;46.760;19.604;2023-05-22T03:33:52;100226.28;;;14.74;92.26
28628;BME280;15815;46.760;19.604;2023-05-22T03:36:19;100220.72;;;14.71;92.62
28628;BME280;15815;46.760;19.604;2023-05-22T03:38:46;100225.84;;;14.76;92.63
28628;BME280;15815;46.760;19.604;2023-05-22T03:41:11;100195.41;;;14.64;92.88
28628;BME280;15815;46.760;19.604;2023-05-22T03:43:37;100199.31;;;14.70;92.66
28628;BME280;15815;46.760;19.604;2023-05-22T03:46:03;100193.94;;;14.75;93.22
28628;BME280;15815;46.760;19.604;2023-05-22T03:48:28;100199.31;;;14.90;92.18
28628;BME280;15815;46.760;19.604;2023-05-22T03:50:54;100206.25;;;15.05;92.09
28628;BME280;15815;46.760;19.604;2023-05-22T03:53:19;100200.13;;;15.06;92.26
28628;BME280;15815;46.760;19.604;2023-05-22T03:55:46;100175.19;;;15.01;93.26
28628;BME280;15815;46.760;19.604;2023-05-22T03:58:11;100178.44;;;15.20;92.67
28628;BME280;15815;46.760;19.604;2023-05-22T04:00:38;100183.94;;;15.43;91.48
28628;BME280;15815;46.760;19.604;2023-05-22T04:03:04;100189.38;;;15.70;90.94
28628;BME280;15815;46.760;19.604;2023-05-22T04:05:29;100188.22;;;15.84;90.96
28628;BME280;15815;46.760;19.604;2023-05-22T04:07:55;100157.75;;;15.88;90.46
28628;BME280;15815;46.760;19.604;2023-05-22T04:10:21;100174.03;;;16.00;90.55
28628;BME280;15815;46.760;19.604;2023-05-22T04:12:46;100193.13;;;16.28;90.00
28628;BME280;15815;46.760;19.604;2023-05-22T04:15:12;100204.44;;;16.45;88.91
28628;BME280;15815;46.760;19.604;2023-05-22T04:17:38;100200.06;;;16.56;88.93
28628;BME280;15815;46.760;19.604;2023-05-22T04:20:05;100209.41;;;16.69;88.59
28628;BME280;15815;46.760;19.604;2023-05-22T04:22:34;100212.38;;;17.20;87.74
28628;BME280;15815;46.760;19.604;2023-05-22T04:24:59;100195.50;;;17.68;87.22
28628;BME280;15815;46.760;19.604;2023-05-22T04:27:25;100206.06;;;18.27;87.30
28628;BME280;15815;46.760;19.604;2023-05-22T04:29:51;100200.31;;;18.74;86.28
28628;BME280;15815;46.760;19.604;2023-05-22T04:32:19;100208.47;;;19.16;86.20
28628;BME280;15815;46.760;19.604;2023-05-22T04:34:47;100216.97;;;19.69;85.89
28628;BME280;15815;46.760;19.604;2023-05-22T04:37:12;100203.47;;;20.00;84.06
28628;BME280;15815;46.760;19.604;2023-05-22T04:39:38;100206.84;;;20.35;84.70
28628;BME280;15815;46.760;19.604;2023-05-22T04:42:04;100202.25;;;20.75;84.94
28628;BME280;15815;46.760;19.604;2023-05-22T04:44:31;100212.84;;;21.02;84.34
28628;BME280;15815;46.760;19.604;2023-05-22T04:46:56;100201.66;;;21.31;84.06
28628;BME280;15815;46.760;19.604;2023-05-22T04:49:22;100198.28;;;21.51;82.00
28628;BME280;15815;46.760;19.604;2023-05-22T04:51:47;100200.63;;;21.85;81.53
28628;BME280;15815;46.760;19.604;2023-05-22T04:54:13;100198.00;;;22.30;80.13
28628;BME280;15815;46.760;19.604;2023-05-22T04:56:38;100207.38;;;22.69;79.11
28628;BME280;15815;46.760;19.604;2023-05-22T04:59:04;100202.00;;;22.86;77.62
28628;BME280;15815;46.760;19.604;2023-05-22T05:01:29;100199.00;;;22.80;76.41
28628;BME280;15815;46.760;19.604;2023-05-22T05:03:55;100187.59;;;22.56;75.35
28628;BME280;15815;46.760;19.604;2023-05-22T05:06:20;100200.72;;;23.46;74.11
28628;BME280;15815;46.760;19.604;2023-05-22T05:08:46;100201.31;;;23.99;71.39
28628;BME280;15815;46.760;19.604;2023-05-22T05:11:13;100212.78;;;23.99;69.09
28628;BME280;15815;46.760;19.604;2023-05-22T05:13:38;100220.56;;;24.14;66.65
28628;BME280;15815;46.760;19.604;2023-05-22T05:16:04;100211.47;;;24.56;64.73
28628;BME280;15815;46.760;19.604;2023-05-22T05:18:29;100190.91;;;24.63;61.41
28628;BME280;15815;46.760;19.604;2023-05-22T05:20:55;100191.78;;;24.95;61.73
28628;BME280;15815;46.760;19.604;2023-05-22T05:23:21;100213.28;;;25.00;57.68
28628;BME280;15815;46.760;19.604;2023-05-22T05:25:49;100215.75;;;25.12;54.84
28628;BME280;15815;46.760;19.604;2023-05-22T05:28:15;100214.44;;;25.39;54.99
28628;BME280;15815;46.760;19.604;2023-05-22T05:30:40;100209.34;;;25.23;55.60
28628;BME280;15815;46.760;19.604;2023-05-22T05:33:06;100215.47;;;25.68;55.82
28628;BME280;15815;46.760;19.604;2023-05-22T05:35:32;100211.84;;;26.10;54.07
28628;BME280;15815;46.760;19.604;2023-05-22T05:37:57;100215.19;;;26.45;54.00
28628;BME280;15815;46.760;19.604;2023-05-22T05:40:23;100217.09;;;26.65;50.24
28628;BME280;15815;46.760;19.604;2023-05-22T05:42:49;100233.41;;;26.85;50.93
28628;BME280;15815;46.760;19.604;2023-05-22T05:45:14;100230.25;;;26.83;48.75
28628;BME280;15815;46.760;19.604;2023-05-22T05:47:40;100236.91;;;27.23;49.16
28628;BME280;15815;46.760;19.604;2023-05-22T05:50:06;100232.47;;;27.16;48.76
28628;BME280;15815;46.760;19.604;2023-05-22T05:52:32;100230.91;;;27.49;48.24
28628;BME280;15815;46.760;19.604;2023-05-22T05:54:58;100237.50;;;27.72;46.74
28628;BME280;15815;46.760;19.604;2023-05-22T05:57:24;100223.28;;;27.96;46.38
28628;BME280;15815;46.760;19.604;2023-05-22T05:59:51;100237.41;;;28.22;46.86
28628;BME280;15815;46.760;19.604;2023-05-22T06:02:16;100226.09;;;28.24;46.08
28628;BME280;15815;46.760;19.604;2023-05-22T06:04:42;100225.63;;;28.83;45.46
28628;BME280;15815;46.760;19.604;2023-05-22T06:07:07;100216.66;;;28.29;46.86
28628;BME280;15815;46.760;19.604;2023-05-22T06:09:33;100235.06;;;28.89;43.92
28628;BME280;15815;46.760;19.604;2023-05-22T06:11:59;100218.38;;;29.12;43.42
28628;BME280;15815;46.760;19.604;2023-05-22T06:14:24;100215.25;;;29.40;43.29
28628;BME280;15815;46.760;19.604;2023-05-22T06:16:50;100225.31;;;29.34;42.66
28628;BME280;15815;46.760;19.604;2023-05-22T06:19:15;100221.56;;;29.44;41.28
28628;BME280;15815;46.760;19.604;2023-05-22T06:21:41;100215.13;;;29.87;43.28
28628;BME280;15815;46.760;19.604;2023-05-22T06:24:06;100203.22;;;30.21;42.45
28628;BME280;15815;46.760;19.604;2023-05-22T06:26:32;100231.41;;;30.44;41.52
28628;BME280;15815;46.760;19.604;2023-05-22T06:28:58;100215.69;;;30.10;40.74
28628;BME280;15815;46.760;19.604;2023-05-22T06:31:23;100218.78;;;30.18;41.20
28628;BME280;15815;46.760;19.604;2023-05-22T06:33:49;100225.81;;;30.71;40.39
28628;BME280;15815;46.760;19.604;2023-05-22T06:36:18;100237.88;;;31.13;39.99
28628;BME280;15815;46.760;19.604;2023-05-22T06:38:43;100221.47;;;30.34;42.40
28628;BME280;15815;46.760;19.604;2023-05-22T06:41:09;100223.78;;;30.41;42.20
28628;BME280;15815;46.760;19.604;2023-05-22T06:43:34;100229.38;;;31.52;40.76
28628;BME280;15815;46.760;19.604;2023-05-22T06:46:00;100230.94;;;31.85;38.52
28628;BME280;15815;46.760;19.604;2023-05-22T06:48:25;100216.97;;;31.97;38.36
28628;BME280;15815;46.760;19.604;2023-05-22T06:50:51;100205.16;;;32.61;37.63
28628;BME280;15815;46.760;19.604;2023-05-22T06:53:17;100229.75;;;32.47;38.78
28628;BME280;15815;46.760;19.604;2023-05-22T06:55:42;100223.00;;;32.92;37.81
28628;BME280;15815;46.760;19.604;2023-05-22T06:58:08;100206.09;;;33.24;36.55
28628;BME280;15815;46.760;19.604;2023-05-22T07:00:33;100220.06;;;33.39;36.13
28628;BME280;15815;46.760;19.604;2023-05-22T07:02:59;100218.22;;;33.70;36.73
28628;BME280;15815;46.760;19.604;2023-05-22T07:05:24;100231.84;;;33.96;35.22
28628;BME280;15815;46.760;19.604;2023-05-22T07:07:50;100224.22;;;34.14;35.70
28628;BME280;15815;46.760;19.604;2023-05-22T07:10:15;100229.59;;;33.81;35.91
28628;BME280;15815;46.760;19.604;2023-05-22T07:12:41;100217.41;;;34.39;34.88
28628;BME280;15815;46.760;19.604;2023-05-22T07:15:07;100215.78;;;33.61;36.19
28628;BME280;15815;46.760;19.604;2023-05-22T07:17:33;100218.34;;;33.64;36.76
28628;BME280;15815;46.760;19.604;2023-05-22T07:19:58;100228.28;;;34.10;36.59
28628;BME280;15815;46.760;19.604;2023-05-22T07:22:24;100214.59;;;33.98;36.92
28628;BME280;15815;46.760;19.604;2023-05-22T07:24:50;100220.53;;;33.30;35.22
28628;BME280;15815;46.760;19.604;2023-05-22T07:27:15;100226.31;;;34.62;32.75
28628;BME280;15815;46.760;19.604;2023-05-22T07:29:41;100216.28;;;34.50;33.40
28628;BME280;15815;46.760;19.604;2023-05-22T07:32:07;100224.63;;;34.18;34.27
28628;BME280;15815;46.760;19.604;2023-05-22T07:34:32;100220.69;;;35.16;33.17
28628;BME280;15815;46.760;19.604;2023-05-22T07:36:58;100233.47;;;35.79;33.49
28628;BME280;15815;46.760;19.604;2023-05-22T07:39:27;100239.00;;;35.24;34.55
28628;BME280;15815;46.760;19.604;2023-05-22T07:41:53;100229.59;;;35.92;32.36
28628;BME280;15815;46.760;19.604;2023-05-22T07:44:18;100226.06;;;36.09;32.06
28628;BME280;15815;46.760;19.604;2023-05-22T07:46:47;100217.28;;;36.32;31.13
28628;BME280;15815;46.760;19.604;2023-05-22T07:49:13;100235.13;;;36.66;31.69
28628;BME280;15815;46.760;19.604;2023-05-22T07:51:39;100243.38;;;36.52;31.60
28628;BME280;15815;46.760;19.604;2023-05-22T07:54:04;100245.16;;;36.40;31.97
28628;BME280;15815;46.760;19.604;2023-05-22T07:56:30;100231.91;;;36.95;30.93
28628;BME280;15815;46.760;19.604;2023-05-22T07:58:56;100235.25;;;36.91;31.41
28628;BME280;15815;46.760;19.604;2023-05-22T08:01:21;100227.97;;;36.52;32.65
28628;BME280;15815;46.760;19.604;2023-05-22T08:03:52;100227.47;;;36.86;32.25
28628;BME280;15815;46.760;19.604;2023-05-22T08:06:18;100234.53;;;37.56;31.08
28628;BME280;15815;46.760;19.604;2023-05-22T08:08:43;100216.00;;;37.53;31.45
28628;BME280;15815;46.760;19.604;2023-05-22T08:11:11;100229.75;;;36.95;32.26
28628;BME280;15815;46.760;19.604;2023-05-22T08:13:37;100228.34;;;37.69;31.56
28628;BME280;15815;46.760;19.604;2023-05-22T08:16:03;100224.44;;;38.16;30.71
28628;BME280;15815;46.760;19.604;2023-05-22T08:18:28;100218.00;;;38.18;30.14
28628;BME280;15815;46.760;19.604;2023-05-22T08:20:54;100223.53;;;38.31;30.19
28628;BME280;15815;46.760;19.604;2023-05-22T08:23:19;100214.81;;;37.16;31.15
28628;BME280;15815;46.760;19.604;2023-05-22T08:25:45;100223.06;;;37.10;30.84
28628;BME280;15815;46.760;19.604;2023-05-22T08:28:11;100211.00;;;37.63;30.59
28628;BME280;15815;46.760;19.604;2023-05-22T08:30:36;100221.88;;;38.89;29.32
28628;BME280;15815;46.760;19.604;2023-05-22T08:33:02;100220.94;;;39.31;28.63
28628;BME280;15815;46.760;19.604;2023-05-22T08:35:27;100215.16;;;38.97;28.74
28628;BME280;15815;46.760;19.604;2023-05-22T08:37:53;100212.91;;;38.87;28.61
28628;BME280;15815;46.760;19.604;2023-05-22T08:40:19;100220.31;;;39.06;28.58
28628;BME280;15815;46.760;19.604;2023-05-22T08:42:44;100204.81;;;38.78;28.94
28628;BME280;15815;46.760;19.604;2023-05-22T08:45:10;100218.44;;;38.83;29.04
28628;BME280;15815;46.760;19.604;2023-05-22T08:47:36;100217.41;;;38.54;28.77
28628;BME280;15815;46.760;19.604;2023-05-22T08:50:02;100212.53;;;39.18;27.21
28628;BME280;15815;46.760;19.604;2023-05-22T08:52:51;100216.38;;;38.93;26.93
28628;BME280;15815;46.760;19.604;2023-05-22T08:55:19;100219.84;;;39.27;28.65
28628;BME280;15815;46.760;19.604;2023-05-22T08:57:45;100213.47;;;39.84;28.26
28628;BME280;15815;46.760;19.604;2023-05-22T09:00:15;100214.94;;;40.02;27.86
28628;BME280;15815;46.760;19.604;2023-05-22T09:02:41;100206.66;;;39.91;26.99
28628;BME280;15815;46.760;19.604;2023-05-22T09:05:07;100219.72;;;39.61;26.66
28628;BME280;15815;46.760;19.604;2023-05-22T09:07:33;100208.28;;;39.38;27.48
28628;BME280;15815;46.760;19.604;2023-05-22T09:09:59;100211.41;;;39.40;27.65
28628;BME280;15815;46.760;19.604;2023-05-22T09:12:26;100205.34;;;40.02;26.85
28628;BME280;15815;46.760;19.604;2023-05-22T09:14:51;100209.22;;;40.04;26.49
28628;BME280;15815;46.760;19.604;2023-05-22T09:17:18;100192.03;;;40.10;26.38
28628;BME280;15815;46.760;19.604;2023-05-22T09:19:46;100204.75;;;39.40;25.01
28628;BME280;15815;46.760;19.604;2023-05-22T09:22:12;100209.91;;;39.49;26.94
28628;BME280;15815;46.760;19.604;2023-05-22T09:24:40;100195.66;;;39.92;25.80
28628;BME280;15815;46.760;19.604;2023-05-22T09:27:06;100203.41;;;40.43;25.93
28628;BME280;15815;46.760;19.604;2023-05-22T09:29:46;100189.72;;;40.19;24.86
28628;BME280;15815;46.760;19.604;2023-05-22T09:32:12;100196.28;;;39.90;25.60
28628;BME280;15815;46.760;19.604;2023-05-22T09:34:38;100180.56;;;40.05;26.14
28628;BME280;15815;46.760;19.604;2023-05-22T09:37:04;100188.66;;;40.43;25.29
28628;BME280;15815;46.760;19.604;2023-05-22T09:39:45;100181.97;;;40.13;25.02
28628;BME280;15815;46.760;19.604;2023-05-22T09:42:13;100192.88;;;40.40;25.67
28628;BME280;15815;46.760;19.604;2023-05-22T09:44:40;100187.88;;;40.81;25.34
28628;BME280;15815;46.760;19.604;2023-05-22T09:47:06;100193.13;;;40.25;26.17
28628;BME280;15815;46.760;19.604;2023-05-22T09:49:40;100171.84;;;39.97;25.59
28628;BME280;15815;46.760;19.604;2023-05-22T09:52:07;100180.34;;;39.93;26.05
28628;BME280;15815;46.760;19.604;2023-05-22T09:54:34;100191.31;;;40.39;25.55
28628;BME280;15815;46.760;19.604;2023-05-22T09:57:00;100188.50;;;40.51;25.50
28628;BME280;15815;46.760;19.604;2023-05-22T09:59:27;100184.03;;;39.84;26.55
28628;BME280;15815;46.760;19.604;2023-05-22T10:01:52;100182.94;;;39.79;26.68
28628;BME280;15815;46.760;19.604;2023-05-22T10:04:21;100173.13;;;39.31;25.99
28628;BME280;15815;46.760;19.604;2023-05-22T10:06:52;100181.19;;;39.67;24.88
28628;BME280;15815;46.760;19.604;2023-05-22T10:09:25;100178.88;;;39.65;25.78
28628;BME280;15815;46.760;19.604;2023-05-22T10:11:54;100183.16;;;39.01;27.79
28628;BME280;15815;46.760;19.604;2023-05-22T10:14:22;100169.47;;;39.40;26.98
28628;BME280;15815;46.760;19.604;2023-05-22T10:16:48;100169.34;;;38.67;27.54
28628;BME280;15815;46.760;19.604;2023-05-22T10:19:14;100179.59;;;38.75;28.38
28628;BME280;15815;46.760;19.604;2023-05-22T10:21:41;100166.06;;;38.89;27.69
28628;BME280;15815;46.760;19.604;2023-05-22T10:24:07;100179.25;;;38.19;27.73
28628;BME280;15815;46.760;19.604;2023-05-22T10:26:34;100165.38;;;38.37;28.06
28628;BME280;15815;46.760;19.604;2023-05-22T10:29:11;100161.06;;;37.96;28.70
28628;BME280;15815;46.760;19.604;2023-05-22T10:31:48;100167.19;;;38.08;28.16
28628;BME280;15815;46.760;19.604;2023-05-22T10:37:36;100161.25;;;37.81;27.63
28628;BME280;15815;46.760;19.604;2023-05-22T10:40:09;100161.00;;;37.04;30.46
28628;BME280;15815;46.760;19.604;2023-05-22T10:42:37;100146.50;;;36.66;29.80
28628;BME280;15815;46.760;19.604;2023-05-22T10:45:06;100157.75;;;36.44;29.88
28628;BME280;15815;46.760;19.604;2023-05-22T10:47:35;100164.34;;;36.52;30.20
28628;BME280;15815;46.760;19.604;2023-05-22T10:50:08;100149.22;;;36.16;31.37
28628;BME280;15815;46.760;19.604;2023-05-22T10:52:35;100149.28;;;35.85;28.26
28628;BME280;15815;46.760;19.604;2023-05-22T10:55:05;100145.56;;;35.47;29.76
28628;BME280;15815;46.760;19.604;2023-05-22T10:57:36;100146.94;;;35.38;29.83
28628;BME280;15815;46.760;19.604;2023-05-22T11:00:23;100139.81;;;34.88;30.17
28628;BME280;15815;46.760;19.604;2023-05-22T11:02:48;100141.50;;;34.76;29.90
28628;BME280;15815;46.760;19.604;2023-05-22T11:07:42;100130.09;;;35.00;31.16
28628;BME280;15815;46.760;19.604;2023-05-22T11:10:08;100133.78;;;34.93;32.37
28628;BME280;15815;46.760;19.604;2023-05-22T11:12:34;100141.59;;;34.47;31.27
28628;BME280;15815;46.760;19.604;2023-05-22T11:15:09;100127.78;;;33.83;32.33
28628;BME280;15815;46.760;19.604;2023-05-22T11:20:10;100121.75;;;34.46;32.14
28628;BME280;15815;46.760;19.604;2023-05-22T11:22:39;100125.09;;;34.57;33.35
28628;BME280;15815;46.760;19.604;2023-05-22T11:25:15;100127.34;;;34.36;34.13
28628;BME280;15815;46.760;19.604;2023-05-22T11:27:41;100121.25;;;34.26;32.55
28628;BME280;15815;46.760;19.604;2023-05-22T11:30:07;100110.81;;;33.74;32.48
28628;BME280;15815;46.760;19.604;2023-05-22T11:32:37;100120.94;;;33.80;33.22
28628;BME280;15815;46.760;19.604;2023-05-22T11:35:04;100120.94;;;33.80;32.69
28628;BME280;15815;46.760;19.604;2023-05-22T11:37:31;100115.13;;;33.31;32.20
28628;BME280;15815;46.760;19.604;2023-05-22T11:40:03;100105.47;;;33.36;34.29
28628;BME280;15815;46.760;19.604;2023-05-22T11:42:28;100115.91;;;33.53;32.23
28628;BME280;15815;46.760;19.604;2023-05-22T11:44:54;100098.53;;;32.84;33.33
28628;BME280;15815;46.760;19.604;2023-05-22T11:47:20;100089.78;;;32.84;31.91
28628;BME280;15815;46.760;19.604;2023-05-22T11:49:46;100092.31;;;32.67;34.72
28628;BME280;15815;46.760;19.604;2023-05-22T11:52:12;100094.06;;;32.83;34.70
28628;BME280;15815;46.760;19.604;2023-05-22T11:54:38;100094.25;;;32.65;35.18
28628;BME280;15815;46.760;19.604;2023-05-22T11:57:06;100081.13;;;32.37;35.57
28628;BME280;15815;46.760;19.604;2023-05-22T11:59:32;100098.75;;;32.86;35.67
28628;BME280;15815;46.760;19.604;2023-05-22T12:01:58;100084.03;;;32.71;34.27
28628;BME280;15815;46.760;19.604;2023-05-22T12:04:24;100081.53;;;32.75;33.03
28628;BME280;15815;46.760;19.604;2023-05-22T12:06:50;100085.63;;;32.93;34.45
28628;BME280;15815;46.760;19.604;2023-05-22T12:09:15;100073.72;;;32.70;34.30
28628;BME280;15815;46.760;19.604;2023-05-22T12:11:47;100083.72;;;32.96;33.42
28628;BME280;15815;46.760;19.604;2023-05-22T12:14:13;100090.25;;;32.75;34.30
28628;BME280;15815;46.760;19.604;2023-05-22T12:16:39;100086.41;;;32.94;34.24
28628;BME280;15815;46.760;19.604;2023-05-22T12:19:09;100085.22;;;32.89;33.56
28628;BME280;15815;46.760;19.604;2023-05-22T12:21:38;100083.31;;;32.78;34.91
28628;BME280;15815;46.760;19.604;2023-05-22T12:24:05;100086.06;;;32.63;33.65
28628;BME280;15815;46.760;19.604;2023-05-22T12:26:31;100079.63;;;32.78;33.57
28628;BME280;15815;46.760;19.604;2023-05-22T12:28:57;100057.53;;;32.62;34.28
28628;BME280;15815;46.760;19.604;2023-05-22T12:31:26;100067.38;;;32.93;34.66
28628;BME280;15815;46.760;19.604;2023-05-22T12:33:56;100065.06;;;32.91;33.71
28628;BME280;15815;46.760;19.604;2023-05-22T12:36:37;100066.69;;;32.66;33.71
28628;BME280;15815;46.760;19.604;2023-05-22T12:39:10;100066.47;;;32.30;31.76
28628;BME280;15815;46.760;19.604;2023-05-22T12:41:36;100049.28;;;31.92;33.12
28628;BME280;15815;46.760;19.604;2023-05-22T12:44:02;100053.28;;;32.02;35.41
28628;BME280;15815;46.760;19.604;2023-05-22T12:46:31;100039.03;;;32.25;35.64
28628;BME280;15815;46.760;19.604;2023-05-22T12:48:57;100044.75;;;32.31;35.69
28628;BME280;15815;46.760;19.604;2023-05-22T12:51:25;100046.47;;;32.13;35.52
28628;BME280;15815;46.760;19.604;2023-05-22T12:53:51;100032.59;;;32.19;34.83
28628;BME280;15815;46.760;19.604;2023-05-22T12:56:16;100033.09;;;32.44;33.67
28628;BME280;15815;46.760;19.604;2023-05-22T12:58:42;100034.41;;;31.95;31.87
28628;BME280;15815;46.760;19.604;2023-05-22T13:01:08;100033.31;;;31.85;31.91